Grand Forks Air Force Base, ND

5:25 PM CDT on July 23, 2014 (GMT -0500)
Grand Forks Air Force Base (KRDR) Elev 912 ft | 47.96 °N, 97.40 °W | Change Station

Current weather conditions updated 27 minutes ago

Partly Cloudy
Partly Cloudy
72 °F
Feels Like 72 °F
N
7
Wind Variable Wind from NNW

Tomorrow is forecast to be Warmer than today. Showers and thunderstorms late tomorrow night.

Today
High -- | Low -- °F
--% Chance of Precip.
Yesterday
High -- | Low -- °F
Precip. -- in
5:54 AM 9:16 PM
Waning Crescent, 8% visible
Pressure 30.27 in
Visibility 10.0 miles
Clouds Few 3700 ft
Dew Point 58 °F
Humidity 61%
Rainfall 0.00 in
Snow Depth Not available.
UV 5 out of 12
Pollen 7.00 out of 12
Air Quality Not available.
Flu Activity Not available.
METAR KRDR 232158Z AUTO 34006KT 10SM FEW037 22/15 A3026 RMK AO2 SLP251 T02240146

More Conditions Fewer Conditions

Pressure 30.27 in
Visibility 10.0 miles
Clouds Few 3700 ft
Dew Point 58 °F
Humidity 61%
Rainfall 0.00 in
Snow Depth Not available.
UV 5 out of 12
Pollen 7.00 out of 12
Air Quality Not available.
Flu Activity Not available.
METAR KRDR 232158Z AUTO 34006KT 10SM FEW037 22/15 A3026 RMK AO2 SLP251 T02240146

More Conditions Fewer Conditions

10-Day Weather Forecast

Almanac

Astronomy

Jul. 23, 2014 Rise Set
Actual Time 5:54 AM CDT 9:16 PM CDT
Civil Twilight 5:16 AM CDT 9:54 PM CDT
Nautical Twilight 4:26 AM CDT 10:44 PM CDT
Astronomical Twilight 3:21 AM CDT 11:48 PM CDT
Moon 3:16 AM CDT 6:44 PM CDT
Length of Visible Light 16h 37m
Length of Day
15h 21m
Tomorrow will be 2m 21s shorter.
Waning Crescent, 8% of the Moon is Illuminated
Today
Waning Crescent
Jul 26
New
Aug 3
First Quarter
Aug 10
Full
Aug 17
Last Quarter

Today's Extremes

State Highs State Lows

Community

WunderPhotos

Upload Photos

1,736,806 photos uploaded!

Nearby

Snow Depth

Station Depth Elevation
No new snow has been reported.

Earthquake Activity

City Distance Mag. Time & Date
No recent earthquake activity has been reported nearby.
Minimum magnitude displayed is 2.5.

Coastal Water Temperatures

Place Temperature
No Stations Reporting

Nearby Weather Stations

Station Location Temp. Heat Index Dew Point Humidity Wind Precip. Elev Updated Type
Grand Forks, ND 72.9 °F 76 °F 57 °F 59% SW  at  3.3 mph 0.00 in / hr 830 ft 3:42 PM CDT Rapid Fire

Show More Stations Show Fewer Stations